• Join FlightAware (Why Join?)
  • Login
  • US Flag 
11:06AM EST


 

Airport Tracker/Info


-or-


 

Live Flight TrackerFlight Track Log ✈ DAL1903 ✈ 31-Jul-2014 ✈ KSRQ - KLGA

Flight Track Log - Related Links

Times and Time Zones

All times are in EDT time to prevent confusion due to time zone crossing. See the DAL1903 flight status page for this flight to view local times or setup timezone preferences in your user account.

Time Position Orientation Groundspeed Altitude Reporting Facility
EDT Latitude Longitude Course Direction KTS MPH feet Rate Location/Type
02:28PM 27.4167 -82.6000 299° West 175 201 1,900  Level Tampa TRACON
02:29PM 27.4000 -82.6667 254° West 257 296 3,900 2,580 Climbing Tampa TRACON
02:31PM 27.7204 -82.7833 North  Level FlightAware Approximate
02:31PM 27.4461 -82.7653 298° West 274 315 8,300  Level Miami Center
02:32PM 27.8440 -82.7833 North  Level FlightAware Approximate
02:32PM 27.5219 -82.7925 342° North 301 346 10,800  Level Miami Center
02:33PM 27.9676 -82.7833 North  Level FlightAware Approximate
02:33PM 27.6194 -82.7908 North 341 392 12,300  Level Miami Center
02:34PM 27.7294 -82.7892 North 384 442 14,600 2,160 Climbing Miami Center
02:35PM 27.8436 -82.7892 360° North 402 463 16,800 1,980 Climbing Miami Center
02:36PM 27.9697 -82.7878 North 412 474 18,800 1,980 Climbing Miami Center
02:37PM 28.1044 -82.7867 360° North 430 495 20,900 1,740 Climbing Miami Center
02:38PM 28.2297 -82.7853 North 440 506 22,500 1,560 Climbing Miami Center
02:39PM 28.3556 -82.7847 360° North 448 516 24,200 1,500 Climbing Miami Center
02:40PM 28.4836 -82.7783 North 453 521 25,700 1,200 Climbing Miami Center
02:41PM 28.6069 -82.7664 North 466 536 26,800 1,500 Climbing Miami Center
02:42PM 28.7522 -82.6964 23° Northeast 474 545 28,800 1,560 Climbing Miami Center
02:43PM 28.8747 -82.6517 18° North 472 543 30,100 1,200 Climbing Miami Center
02:44PM 29.0047 -82.6592 357° North 468 539 31,300 1,140 Climbing Miami Center
02:45PM 29.1619 -82.6714 356° North 459 528 32,800 1,200 Climbing Jacksonville Center
02:46PM 29.2936 -82.6806 357° North 464 534 34,000 1,020 Climbing Jacksonville Center
02:47PM 29.4250 -82.6922 356° North 464 534 34,900 1,140 Climbing Jacksonville Center
02:48PM 29.5692 -82.6919 360° North 458 527 36,300 1,020 Climbing Jacksonville Center
02:49PM 29.6986 -82.6942 359° North 458 527 37,000 300 Climbing Jacksonville Center
02:50PM 29.8281 -82.6914 North 458 527 36,900  Descending Jacksonville Center
02:51PM 29.9553 -82.6911 360° North 458 527 37,000  Climbing Jacksonville Center
02:52PM 30.0847 -82.6861 North 458 527 37,000 -60 Level Jacksonville Center
02:53PM 30.2119 -82.6858 360° North 458 527 36,900 -60 Descending Jacksonville Center
02:54PM 30.3414 -82.6856 360° North 458 527 36,900  Level Jacksonville Center
02:55PM 30.4689 -82.6806 North 458 527 37,000  Climbing Jacksonville Center
02:56PM 30.5794 -82.6536 12° North 458 527 37,000  Level Jacksonville Center
02:57PM 30.7025 -82.5953 22° Northeast 458 527 37,000  Level Jacksonville Center
02:58PM 30.8214 -82.5369 23° Northeast 463 533 37,000 -60 Level Jacksonville Center
02:59PM 30.9422 -82.4736 24° Northeast 463 533 36,900  Descending Jacksonville Center
03:00PM 31.0653 -82.4172 21° North 468 539 37,000 360 Climbing Jacksonville Center
03:01PM 31.1861 -82.3558 23° Northeast 468 539 37,700 960 Climbing Jacksonville Center
03:02PM 31.3050 -82.2992 22° Northeast 473 544 39,000 600 Climbing Jacksonville Center
03:03PM 31.4236 -82.2475 20° North 460 529 38,900 -60 Descending Jacksonville Center
03:04PM 31.5425 -82.1856 24° Northeast 460 529 38,900  Level Jacksonville Center
03:05PM 31.6611 -82.1261 23° Northeast 460 529 39,000  Climbing Jacksonville Center
03:06PM 31.7922 -82.0592 23° Northeast 460 529 39,000  Level Jacksonville Center
03:07PM 31.9003 -82.0042 23° Northeast 455 524 39,000  Level Jacksonville Center
03:09PM 32.1456 -81.8572 33° Northeast 466 536 39,000  Level Jacksonville Center
03:10PM 32.2517 -81.7969 26° Northeast 466 536 39,000  Level Jacksonville Center
03:11PM 32.3803 -81.7192 27° Northeast 466 536 39,000  Level Jacksonville Center
03:12PM 32.4986 -81.6486 27° Northeast 466 536 39,000  Level Jacksonville Center
03:13PM 32.6044 -81.5806 28° Northeast 466 536 39,000 -60 Level Jacksonville Center
03:14PM 32.7100 -81.4903 36° Northeast 471 542 38,900  Descending Jacksonville Center
03:15PM 32.8175 -81.3972 36° Northeast 471 542 39,000  Climbing Jacksonville Center
03:16PM 32.9183 -81.2892 42° Northeast 477 549 39,000 -60 Level Jacksonville Center
03:17PM 33.0064 -81.1661 50° Northeast 477 549 38,900  Descending Jacksonville Center
03:18PM 33.0925 -81.0478 49° Northeast 482 555 39,000  Climbing Jacksonville Center
03:19PM 33.1803 -80.9244 50° Northeast 482 555 38,900 -60 Descending Jacksonville Center
03:20PM 33.2722 -80.8008 48° Northeast 488 562 38,900  Level Jacksonville Center
03:21PM 33.3619 -80.6792 49° Northeast 488 562 38,900  Level Jacksonville Center
03:22PM 33.4517 -80.5525 50° Northeast 488 562 39,000  Climbing Jacksonville Center
03:23PM 33.5431 -80.4306 48° Northeast 488 562 38,900 -60 Descending Jacksonville Center
03:24PM 33.6344 -80.3033 49° Northeast 488 562 38,900  Level Jacksonville Center
03:25PM 33.7194 -80.1783 51° Northeast 488 562 39,000  Climbing Jacksonville Center
03:26PM 33.8172 -80.0653 44° Northeast 482 555 39,000  Level Jacksonville Center
03:27PM 33.9344 -79.9889 28° Northeast 476 548 39,000  Level Jacksonville Center
03:28PM 34.0539 -79.9200 26° Northeast 471 542 39,000  Level Jacksonville Center
03:31PM 34.3250 -79.7436 28° Northeast 479 551 39,000  Level Washington Center
03:32PM 34.4422 -79.6764 25° Northeast 474 545 39,000  Level Washington Center
03:33PM 34.5592 -79.6067 26° Northeast 469 540 39,000  Level Washington Center
03:34PM 34.6786 -79.5317 27° Northeast 464 534 39,000  Level Washington Center
03:35PM 34.8000 -79.4567 27° Northeast 470 541 39,000  Level Washington Center
03:36PM 34.9192 -79.3814 27° Northeast 475 547 39,000  Level Washington Center
03:37PM 35.0406 -79.3058 27° Northeast 485 558 39,000  Level Washington Center
03:38PM 35.1639 -79.2328 26° Northeast 485 558 39,000  Level Washington Center
03:39PM 35.2828 -79.1592 27° Northeast 480 552 39,000  Level Washington Center
03:40PM 35.4103 -79.0808 27° Northeast 496 571 39,000  Level Washington Center
03:41PM 35.5253 -79.0094 27° Northeast 488 562 39,000  Level Washington Center
03:42PM 35.6483 -78.9328 27° Northeast 483 556 39,000  Level Washington Center
03:43PM 35.7717 -78.8536 28° Northeast 483 556 39,000  Level Washington Center
03:44PM 35.8925 -78.7739 28° Northeast 483 556 39,000  Level Washington Center
03:45PM 36.0058 -78.6731 36° Northeast 489 563 39,000  Level Washington Center
03:46PM 36.1189 -78.5747 35° Northeast 495 570 39,000  Level Washington Center
03:47PM 36.2319 -78.4733 36° Northeast 495 570 39,000  Level Washington Center
03:48PM 36.3469 -78.3744 35° Northeast 500 575 39,000  Level Washington Center
03:49PM 36.4578 -78.2725 36° Northeast 500 575 39,000  Level Washington Center
03:50PM 36.5728 -78.1731 35° Northeast 500 575 39,000  Level Washington Center
03:51PM 36.6811 -78.0706 37° Northeast 500 575 39,000  Level Washington Center
03:52PM 36.7919 -77.9678 37° Northeast 495 570 39,000  Level Washington Center
03:53PM 36.9064 -77.8750 33° Northeast 495 570 39,000  Level Washington Center
03:54PM 37.0339 -77.8581 North 458 527 39,000  Level Washington Center
03:55PM 37.1631 -77.8619 359° North 452 520 39,000  Level Washington Center
03:56PM 37.2903 -77.8656 359° North 447 514 39,000  Level Washington Center
03:57PM 37.4161 -77.8353 11° North 447 514 39,000  Level Washington Center
03:58PM 37.5100 -77.7125 46° Northeast 440 506 39,000  Level Washington Center
03:59PM 37.5772 -77.5597 61° Northeast 459 528 39,000  Level Washington Center
04:00PM 37.6444 -77.4042 61° Northeast 472 543 39,000  Level Washington Center
04:01PM 37.7136 -77.2431 61° Northeast 494 568 39,000  Level Washington Center
04:02PM 37.7781 -77.0867 62° Northeast 499 574 39,000  Level Washington Center
04:03PM 37.8447 -76.9278 62° Northeast 504 580 39,000  Level Washington Center
04:04PM 37.9108 -76.7708 62° Northeast 509 586 39,000  Level Washington Center
04:05PM 37.9997 -76.6328 51° Northeast 509 586 39,000  Level Washington Center
04:06PM 38.1133 -76.5314 35° Northeast 493 567 39,000  Level Washington Center
04:07PM 38.2306 -76.4428 31° Northeast 488 562 39,000 -120 Level Washington Center
04:08PM 38.3417 -76.3489 34° Northeast 488 562 38,800 -660 Descending Washington Center
04:09PM 38.4569 -76.2439 35° Northeast 493 567 37,800 -960 Descending Washington Center
04:10PM 38.5703 -76.1361 37° Northeast 500 575 36,900 -1,620 Descending Washington Center
04:11PM 38.6769 -76.0383 36° Northeast 506 582 34,600 -2,940 Descending Washington Center
04:12PM 38.7939 -75.9300 36° Northeast 511 588 31,000 -3,480 Descending Washington Center
04:13PM 38.9131 -75.8211 35° Northeast 516 594 27,700 -2,100 Descending Washington Center
04:14PM 39.0217 -75.7172 37° Northeast 508 585 26,900 -360 Descending Washington Center
04:15PM 39.1281 -75.6156 37° Northeast 488 562 27,000 -1,440 Climbing Washington Center
04:16PM 39.2383 -75.5139 36° Northeast 481 554 24,100 -2,460 Descending Washington Center
04:17PM 39.3425 -75.4197 35° Northeast 475 547 22,200 -1,800 Descending Washington Center
04:18PM 39.4425 -75.3308 34° Northeast 458 527 20,600 -1,560 Descending Washington Center
04:19PM 39.5400 -75.2417 35° Northeast 441 507 19,100 -1,440 Descending Washington Center
04:20PM 39.6336 -75.1550 35° Northeast 425 489 17,800 -1,440 Descending Washington Center
04:21PM 39.7292 -75.0708 34° Northeast 419 482 16,300 -1,560 Descending Washington Center
04:22PM 39.8286 -74.9836 34° Northeast 404 465 14,800 -1,500 Descending Washington Center
04:23PM 39.9197 -74.8989 35° Northeast 392 451 13,300 -1,380 Descending Washington Center
04:24PM 39.9900 -74.8008 47° Northeast 392 451 12,000 -1,380 Descending Washington Center
04:25PM 40.0500 -74.7167 47° Northeast 379 436 10,800 -1,140 Descending New York TRACON
04:26PM 40.1167 -74.6167 49° Northeast 368 423 10,000 -360 Descending New York TRACON
04:27PM 40.2000 -74.5000 47° Northeast 369 425 10,100  Climbing New York TRACON
04:27PM 40.2500 -74.4333 45° Northeast 366 421 10,000 -420 Descending New York TRACON
04:28PM 40.3167 -74.3500 44° Northeast 305 351 9,300 -540 Descending New York TRACON
04:29PM 40.3833 -74.2833 37° Northeast 309 356 9,000 -480 Descending New York TRACON
04:30PM 40.4500 -74.2000 44° Northeast 304 350 8,400 -1,080 Descending New York TRACON
04:31PM 40.5167 -74.1333 37° Northeast 294 338 6,900 -1,500 Descending New York TRACON
04:32PM 40.5833 -74.0833 30° Northeast 287 330 5,400 -1,500 Descending New York TRACON
04:33PM 40.6500 -74.0333 30° Northeast 279 321 4,000 -720 Descending New York TRACON
04:34PM 40.7333 -74.0167 North 280 322 4,000  Level New York TRACON
04:35PM 40.8000 -73.9833 21° North 283 326 4,000  Level New York TRACON
04:36PM 40.8667 -73.9333 30° Northeast 259 298 4,000 -360 Level New York TRACON
04:37PM 40.9000 -73.8833 49° Northeast 216 249 3,300 -1,020 Descending New York TRACON
04:38PM 40.8667 -73.8333 131° Southeast 168 193 2,000 -1,140 Descending New York TRACON
04:39PM 40.8333 -73.8333 180° South 128 147 1,100 -780 Descending New York TRACON
04:40PM 40.8000 -73.8500 201° Southwest 120 138 500 -600 Descending New York TRACON